createdAt,value
2023-05-02T00:01:18.709Z,6.68
2023-05-02T00:03:49.392Z,5.47
2023-05-02T00:06:19.233Z,5.88
2023-05-02T00:08:49.380Z,5.70
2023-05-02T00:11:19.090Z,5.93
2023-05-02T00:13:48.828Z,6.30
2023-05-02T00:16:19.734Z,5.85
2023-05-02T00:18:50.851Z,6.85
2023-05-02T00:21:20.560Z,5.38
2023-05-02T00:23:53.306Z,8.00
2023-05-02T00:26:23.104Z,6.60
2023-05-02T00:28:52.780Z,5.90
2023-05-02T00:31:22.486Z,15.80
2023-05-02T00:33:52.200Z,14.95
2023-05-02T00:36:22.169Z,13.02
2023-05-02T00:38:52.005Z,15.05
2023-05-02T00:41:21.649Z,15.52
2023-05-02T00:43:51.310Z,16.23
2023-05-02T00:46:20.969Z,18.25
2023-05-02T00:48:50.615Z,12.40
2023-05-02T00:51:20.420Z,16.10
2023-05-02T00:53:50.117Z,14.38
2023-05-02T00:56:22.421Z,20.38
2023-05-02T00:58:52.145Z,14.80
2023-05-02T01:01:39.758Z,15.07
2023-05-02T01:04:44.292Z,22.30
2023-05-02T01:07:41.256Z,17.95
2023-05-02T01:10:32.728Z,19.10
2023-05-02T01:13:26.743Z,16.63
2023-05-02T01:15:56.477Z,16.73
2023-05-02T01:18:27.056Z,13.10
2023-05-02T01:21:03.865Z,13.40
2023-05-02T01:23:59.703Z,13.73
2023-05-02T01:27:15.682Z,14.27
2023-05-02T01:29:45.541Z,16.13
2023-05-02T01:32:15.221Z,9.23
2023-05-02T01:34:45.314Z,18.35
2023-05-02T01:37:15.403Z,10.40
2023-05-02T01:39:45.152Z,10.82
2023-05-02T01:42:15.157Z,9.93
2023-05-02T01:44:45.081Z,6.50
2023-05-02T01:47:20.042Z,11.43
2023-05-02T01:49:49.823Z,12.02
2023-05-02T01:52:19.478Z,20.30
2023-05-02T01:54:52.973Z,14.90
2023-05-02T01:57:22.695Z,10.00
2023-05-02T01:59:52.307Z,11.80
2023-05-02T02:02:22.008Z,13.23
2023-05-02T02:04:51.680Z,12.68
2023-05-02T02:07:21.519Z,8.55
2023-05-02T02:09:51.191Z,8.93
2023-05-02T02:12:29.544Z,8.32
2023-05-02T02:15:05.269Z,7.75
2023-05-02T02:18:11.037Z,9.48
2023-05-02T02:20:40.694Z,11.35
2023-05-02T02:23:10.444Z,10.25
2023-05-02T02:25:40.337Z,8.63
2023-05-02T02:28:10.251Z,7.47
2023-05-02T02:30:42.526Z,5.72
2023-05-02T02:33:12.322Z,7.85
2023-05-02T02:35:48.330Z,6.75
2023-05-02T02:38:37.354Z,6.68
2023-05-02T02:41:16.846Z,8.10
2023-05-02T02:44:13.878Z,5.00
2023-05-02T02:47:19.638Z,5.68
2023-05-02T02:49:56.092Z,5.72
2023-05-02T02:52:42.526Z,5.82
2023-05-02T02:55:33.469Z,6.15
2023-05-02T02:58:22.409Z,6.30
2023-05-02T03:00:52.084Z,7.15
2023-05-02T03:03:22.517Z,4.88
2023-05-02T03:05:52.393Z,7.15
2023-05-02T03:08:22.056Z,5.70
2023-05-02T03:10:51.827Z,4.95
2023-05-02T03:13:21.437Z,7.10
2023-05-02T03:15:54.800Z,4.93
2023-05-02T03:18:24.439Z,4.00
2023-05-02T03:20:54.285Z,8.68
2023-05-02T03:23:23.925Z,6.65
2023-05-02T03:25:54.524Z,4.97
2023-05-02T03:28:24.183Z,4.20
2023-05-02T03:30:53.855Z,7.22
2023-05-02T03:33:23.592Z,5.05
2023-05-02T03:35:53.339Z,5.93
2023-05-02T03:38:23.411Z,4.82
2023-05-02T03:40:53.189Z,4.95
2023-05-02T03:43:23.044Z,3.67
2023-05-02T03:45:52.862Z,5.28
2023-05-02T03:48:28.143Z,5.05
2023-05-02T03:50:58.249Z,3.15
2023-05-02T03:53:27.878Z,5.13
2023-05-02T03:55:57.614Z,5.80
2023-05-02T03:58:28.475Z,5.20
2023-05-02T04:00:58.215Z,6.47
2023-05-02T04:03:29.736Z,7.03
2023-05-02T04:06:02.734Z,4.25
2023-05-02T04:08:32.433Z,5.20
2023-05-02T04:11:02.229Z,4.68
2023-05-02T04:13:31.990Z,5.10
2023-05-02T04:16:01.728Z,6.20
2023-05-02T04:18:31.407Z,5.05
2023-05-02T04:21:01.119Z,5.45
2023-05-02T04:23:30.800Z,5.07
2023-05-02T04:26:00.485Z,5.78
2023-05-02T04:28:30.149Z,4.32
2023-05-02T04:30:59.905Z,5.18
2023-05-02T04:33:29.660Z,5.75
2023-05-02T04:35:59.353Z,7.93
2023-05-02T04:38:29.234Z,5.50
2023-05-02T04:40:58.870Z,6.00
2023-05-02T04:43:28.505Z,5.45
2023-05-02T04:46:00.200Z,7.45
2023-05-02T04:48:29.965Z,7.22
2023-05-02T04:50:59.686Z,8.40
2023-05-02T04:53:29.898Z,7.03
2023-05-02T04:55:59.786Z,4.20
2023-05-02T04:58:29.530Z,4.47
2023-05-02T05:00:59.187Z,5.90
2023-05-02T05:03:29.924Z,4.32
2023-05-02T05:05:59.831Z,7.57
2023-05-02T05:08:29.593Z,7.72
2023-05-02T05:10:59.388Z,7.85
2023-05-02T05:13:30.022Z,4.63
2023-05-02T05:15:59.805Z,8.40
2023-05-02T05:18:29.571Z,10.10
2023-05-02T05:20:59.461Z,6.97
2023-05-02T05:23:30.013Z,9.35
2023-05-02T05:25:59.705Z,6.60
2023-05-02T05:28:29.348Z,6.68
2023-05-02T05:30:59.132Z,5.72
2023-05-02T05:33:28.838Z,7.97
2023-05-02T05:35:59.089Z,4.90
2023-05-02T05:38:28.962Z,6.68
2023-05-02T05:40:58.697Z,7.93
2023-05-02T05:43:28.578Z,9.27
2023-05-02T05:45:58.331Z,6.57
2023-05-02T05:48:28.057Z,9.20
2023-05-02T05:50:57.718Z,6.72
2023-05-02T05:53:27.325Z,7.70
2023-05-02T05:55:57.066Z,8.80
2023-05-02T05:58:26.737Z,6.60
2023-05-02T06:00:56.508Z,11.57
2023-05-02T06:03:26.257Z,8.80
2023-05-02T06:05:56.304Z,9.77
2023-05-02T06:08:25.969Z,12.48
2023-05-02T06:10:55.625Z,6.00
2023-05-02T06:13:25.342Z,7.30
2023-05-02T06:15:55.021Z,8.77
2023-05-02T06:18:24.777Z,5.20
2023-05-02T06:20:54.430Z,7.28
2023-05-02T06:23:24.123Z,7.20
2023-05-02T06:25:53.904Z,6.28
2023-05-02T06:28:23.521Z,8.40
2023-05-02T06:31:13.155Z,7.88
2023-05-02T06:33:42.975Z,5.57
2023-05-02T06:36:12.580Z,4.97
2023-05-02T06:38:42.280Z,6.18
2023-05-02T06:41:18.716Z,5.32
2023-05-02T06:43:48.495Z,7.22
2023-05-02T06:46:19.011Z,9.10
2023-05-02T06:48:48.670Z,6.53
2023-05-02T06:51:18.308Z,6.93
2023-05-02T06:53:47.999Z,6.35
2023-05-02T06:56:17.729Z,7.65
2023-05-02T06:58:47.500Z,7.93
2023-05-02T07:01:17.236Z,6.88
2023-05-02T07:03:48.106Z,7.88
2023-05-02T07:06:18.237Z,5.90
2023-05-02T07:08:47.888Z,5.68
2023-05-02T07:11:20.374Z,4.43
2023-05-02T07:13:50.017Z,7.07
2023-05-02T07:16:19.667Z,5.20
2023-05-02T07:18:49.308Z,6.13
2023-05-02T07:21:20.722Z,5.03
2023-05-02T07:23:50.417Z,5.55
2023-05-02T07:26:21.638Z,4.90
2023-05-02T07:28:51.237Z,4.80
2023-05-02T07:31:20.933Z,5.25
2023-05-02T07:33:50.615Z,4.97
2023-05-02T07:36:20.304Z,5.38
2023-05-02T07:38:49.980Z,3.95
2023-05-02T07:41:19.674Z,5.13
2023-05-02T07:43:49.371Z,6.63
2023-05-02T07:46:19.106Z,4.95
2023-05-02T07:48:48.918Z,6.32
2023-05-02T07:51:18.616Z,6.00
2023-05-02T07:53:48.271Z,6.72
2023-05-02T07:56:17.911Z,5.38
2023-05-02T07:58:47.639Z,6.88
2023-05-02T08:01:17.245Z,5.68
2023-05-02T08:03:47.579Z,5.07
2023-05-02T08:06:17.698Z,4.55
2023-05-02T08:08:47.386Z,5.25
2023-05-02T08:11:17.195Z,4.28
2023-05-02T08:13:46.837Z,5.28
2023-05-02T08:16:16.683Z,4.75
2023-05-02T08:18:46.426Z,6.30
2023-05-02T08:21:16.576Z,6.82
2023-05-02T08:23:47.776Z,5.38
2023-05-02T08:26:20.436Z,4.90
2023-05-02T08:28:50.041Z,7.30
2023-05-02T08:31:19.751Z,4.93
2023-05-02T08:33:49.688Z,4.70
2023-05-02T08:36:19.833Z,5.95
2023-05-02T08:38:49.635Z,6.00
2023-05-02T08:41:20.178Z,6.35
2023-05-02T08:43:49.974Z,5.38
2023-05-02T08:46:19.983Z,5.30
2023-05-02T08:48:52.479Z,5.38
2023-05-02T08:51:22.307Z,6.10
2023-05-02T08:53:51.939Z,7.28
2023-05-02T08:56:22.161Z,6.72
2023-05-02T08:58:52.557Z,6.15
2023-05-02T09:01:24.776Z,4.80
2023-05-02T09:03:56.185Z,5.40
2023-05-02T09:06:25.963Z,7.68
2023-05-02T09:08:55.943Z,4.10
2023-05-02T09:11:25.558Z,4.15
2023-05-02T09:13:55.280Z,5.78
2023-05-02T09:16:27.481Z,4.47
2023-05-02T09:18:58.252Z,5.55
2023-05-02T09:21:29.206Z,5.20
2023-05-02T09:24:02.387Z,4.93
2023-05-02T09:26:33.973Z,4.20
2023-05-02T09:29:05.115Z,4.50
2023-05-02T09:34:12.153Z,4.25
2023-05-02T09:36:53.528Z,3.47
2023-05-02T09:39:26.035Z,4.43
2023-05-02T09:41:56.167Z,5.97
2023-05-02T09:44:27.436Z,4.22
2023-05-02T09:46:58.934Z,3.95
2023-05-02T09:49:46.816Z,5.07
2023-05-02T09:52:17.910Z,5.68
2023-05-02T09:54:54.700Z,4.57
2023-05-02T09:57:24.885Z,4.55
2023-05-02T10:00:01.183Z,3.90
2023-05-02T10:02:32.379Z,4.05
2023-05-02T10:05:02.669Z,4.57
2023-05-02T10:07:32.495Z,4.72
2023-05-02T10:10:02.314Z,4.20
2023-05-02T10:12:32.140Z,4.35
2023-05-02T10:15:04.774Z,3.40
2023-05-02T10:17:37.496Z,4.53
2023-05-02T10:20:08.336Z,5.57
2023-05-02T10:22:37.735Z,5.20
2023-05-02T10:25:07.785Z,4.78
2023-05-02T10:27:39.384Z,4.05
2023-05-02T10:30:09.683Z,4.47
2023-05-02T10:32:39.594Z,3.22
2023-05-02T10:35:12.629Z,2.58
2023-05-02T10:37:42.393Z,4.28
2023-05-02T10:40:15.422Z,3.08
2023-05-02T10:42:49.382Z,4.03
2023-05-02T10:45:38.353Z,4.60
2023-05-02T10:48:21.787Z,5.10
2023-05-02T10:50:56.224Z,4.82
2023-05-02T10:53:27.149Z,3.53
2023-05-02T10:56:15.805Z,3.85
2023-05-02T10:58:46.796Z,4.95
2023-05-02T11:01:29.065Z,3.47
2023-05-02T11:04:07.773Z,3.70
2023-05-02T11:06:59.373Z,5.03
2023-05-02T11:09:32.766Z,4.15
2023-05-02T11:12:03.628Z,4.28
2023-05-02T11:14:42.321Z,3.35
2023-05-02T11:17:12.396Z,3.13
2023-05-02T11:19:48.010Z,3.55
2023-05-02T11:22:25.375Z,4.90
2023-05-02T11:24:55.196Z,3.15
2023-05-02T11:27:47.137Z,5.18
2023-05-02T11:30:17.621Z,5.38
2023-05-02T11:32:47.669Z,5.55
2023-05-02T11:35:28.410Z,5.07
2023-05-02T11:37:58.488Z,5.15
2023-05-02T11:40:28.823Z,4.45
2023-05-02T11:42:59.569Z,5.57
2023-05-02T11:45:38.709Z,6.47
2023-05-02T11:48:08.770Z,6.45
2023-05-02T11:50:54.229Z,4.90
2023-05-02T11:53:27.707Z,5.22
2023-05-02T11:55:58.931Z,6.70
2023-05-02T11:58:34.267Z,4.57
2023-05-02T12:03:50.012Z,5.07
2023-05-02T12:06:22.757Z,5.28
2023-05-02T12:08:57.010Z,6.43
2023-05-02T12:11:26.628Z,5.07
2023-05-02T12:13:56.255Z,5.45
2023-05-02T12:16:25.961Z,7.63
2023-05-02T12:18:55.738Z,6.45
2023-05-02T12:21:25.559Z,7.22
2023-05-02T12:23:55.376Z,6.00
2023-05-02T12:26:27.018Z,4.25
2023-05-02T12:28:56.892Z,6.75
2023-05-02T12:31:26.980Z,5.82
2023-05-02T12:33:59.079Z,5.82
2023-05-02T12:36:32.332Z,4.72
2023-05-02T12:39:03.675Z,6.70
2023-05-02T12:41:33.955Z,7.70
2023-05-02T12:44:03.885Z,5.07
2023-05-02T12:46:33.907Z,7.20
2023-05-02T12:49:13.738Z,5.75
2023-05-02T12:51:43.673Z,7.20
2023-05-02T12:54:24.337Z,5.75
2023-05-02T12:56:54.033Z,7.35
2023-05-02T12:59:32.222Z,6.30
2023-05-02T13:02:02.351Z,5.90
2023-05-02T13:04:42.318Z,6.38
2023-05-02T13:07:12.546Z,8.82
2023-05-02T13:09:42.310Z,6.43
2023-05-02T13:12:11.977Z,7.00
2023-05-02T13:14:41.813Z,5.85
2023-05-02T13:17:11.854Z,6.78
2023-05-02T13:19:50.436Z,5.40
2023-05-02T13:22:20.418Z,7.95
2023-05-02T13:24:50.060Z,5.30
2023-05-02T13:27:20.209Z,5.45
2023-05-02T13:29:50.902Z,10.80
2023-05-02T13:32:21.267Z,6.10
2023-05-02T13:34:51.031Z,6.30
2023-05-02T13:37:20.668Z,7.53
2023-05-02T13:39:50.352Z,7.10
2023-05-02T13:42:19.947Z,6.53
2023-05-02T13:44:49.587Z,6.05
2023-05-02T13:47:19.404Z,7.60
2023-05-02T13:49:49.107Z,5.75
2023-05-02T13:52:18.917Z,7.32
2023-05-02T13:54:48.726Z,5.25
2023-05-02T13:57:18.403Z,7.88
2023-05-02T13:59:48.067Z,7.47
2023-05-02T14:02:18.242Z,7.28
2023-05-02T14:04:48.050Z,8.43
2023-05-02T14:07:17.715Z,8.50
2023-05-02T14:09:47.356Z,7.57
2023-05-02T14:12:17.557Z,6.93
2023-05-02T14:14:47.501Z,6.78
2023-05-02T14:17:17.098Z,9.25
2023-05-02T14:19:46.756Z,6.30
2023-05-02T14:22:16.413Z,6.88
2023-05-02T14:24:46.077Z,6.15
2023-05-02T14:27:19.633Z,8.10
2023-05-02T14:29:49.773Z,10.77
2023-05-02T14:32:19.473Z,7.53
2023-05-02T14:34:49.194Z,7.53
2023-05-02T14:37:18.936Z,6.22
2023-05-02T14:39:52.205Z,7.00
2023-05-02T14:42:23.497Z,7.22
2023-05-02T14:44:53.851Z,8.00
2023-05-02T14:47:24.095Z,9.80
2023-05-02T14:49:54.143Z,8.68
2023-05-02T14:52:23.750Z,8.48
2023-05-02T14:54:53.436Z,7.47
2023-05-02T14:57:23.568Z,6.88
2023-05-02T14:59:53.322Z,7.63
2023-05-02T15:02:23.299Z,8.07
2023-05-02T15:04:53.129Z,8.10
2023-05-02T15:07:23.386Z,7.53
2023-05-02T15:09:53.213Z,6.97
2023-05-02T15:12:23.000Z,7.75
2023-05-02T15:14:52.573Z,8.52
2023-05-02T15:17:23.027Z,9.07
2023-05-02T15:19:52.684Z,7.72
2023-05-02T15:22:23.433Z,8.18
2023-05-02T15:24:53.228Z,8.55
2023-05-02T15:27:22.915Z,8.25
2023-05-02T15:29:52.597Z,7.80
2023-05-02T15:32:23.650Z,7.00
2023-05-02T15:34:53.377Z,8.73
2023-05-02T15:37:23.152Z,5.93
2023-05-02T15:39:53.400Z,7.28
2023-05-02T15:42:23.031Z,7.78
2023-05-02T15:44:55.566Z,6.22
2023-05-02T15:47:25.373Z,8.43
2023-05-02T15:49:56.566Z,7.68
2023-05-02T15:52:26.166Z,8.07
2023-05-02T15:54:57.509Z,8.50
2023-05-02T15:57:27.806Z,7.90
2023-05-02T15:59:57.438Z,6.72
2023-05-02T16:02:27.556Z,7.53
2023-05-02T16:04:57.242Z,7.35
2023-05-02T16:07:29.746Z,7.93
2023-05-02T16:09:59.586Z,9.15
2023-05-02T16:12:29.589Z,8.02
2023-05-02T16:14:59.506Z,8.85
2023-05-02T16:17:30.051Z,10.02
2023-05-02T16:20:00.064Z,7.47
2023-05-02T16:22:30.411Z,9.25
2023-05-02T16:25:00.057Z,8.13
2023-05-02T16:27:29.665Z,9.65
2023-05-02T16:29:59.708Z,9.40
2023-05-02T16:32:29.644Z,8.00
2023-05-02T16:34:59.281Z,9.45
2023-05-02T16:37:29.035Z,8.27
2023-05-02T16:39:59.471Z,11.65
2023-05-02T16:42:29.455Z,9.07
2023-05-02T16:44:59.369Z,8.50
2023-05-02T16:47:29.772Z,7.90
2023-05-02T16:50:00.584Z,9.38
2023-05-02T16:52:30.585Z,10.20
2023-05-02T16:55:00.475Z,7.38
2023-05-02T16:57:30.361Z,7.20
2023-05-02T17:00:01.012Z,9.25
2023-05-02T17:02:31.510Z,9.27
2023-05-02T17:05:01.165Z,8.30
2023-05-02T17:07:30.764Z,8.45
2023-05-02T17:10:01.143Z,8.32
2023-05-02T17:12:33.711Z,9.35
2023-05-02T17:15:04.309Z,9.13
2023-05-02T17:17:34.185Z,8.63
2023-05-02T17:20:04.096Z,7.88
2023-05-02T17:22:37.186Z,9.60
2023-05-02T17:25:10.182Z,8.88
2023-05-02T17:27:41.057Z,8.50
2023-05-02T17:30:11.441Z,8.98
2023-05-02T17:32:42.032Z,7.22
2023-05-02T17:35:12.091Z,7.53
2023-05-02T17:37:42.193Z,9.85
2023-05-02T17:40:12.591Z,7.50
2023-05-02T17:42:44.988Z,8.30
2023-05-02T17:45:15.059Z,7.32
2023-05-02T17:47:44.817Z,8.75
2023-05-02T17:50:15.682Z,8.60
2023-05-02T17:52:45.384Z,8.77
2023-05-02T17:55:16.449Z,8.35
2023-05-02T17:57:47.424Z,9.90
2023-05-02T18:00:17.376Z,8.98
2023-05-02T18:02:47.061Z,9.05
2023-05-02T18:05:17.473Z,9.35
2023-05-02T18:07:47.138Z,7.90
2023-05-02T18:10:17.019Z,8.32
2023-05-02T18:12:46.666Z,7.15
2023-05-02T18:15:16.252Z,9.57
2023-05-02T18:17:45.979Z,7.57
2023-05-02T18:20:16.565Z,9.48
2023-05-02T18:22:46.224Z,8.77
2023-05-02T18:25:15.898Z,9.30
2023-05-02T18:27:45.866Z,7.47
2023-05-02T18:30:15.545Z,11.02
2023-05-02T18:32:45.285Z,7.93
2023-05-02T18:35:15.011Z,8.77
2023-05-02T18:37:44.721Z,8.07
2023-05-02T18:40:14.697Z,8.38
2023-05-02T18:42:46.941Z,8.35
2023-05-02T18:45:17.341Z,7.68
2023-05-02T18:47:47.030Z,8.25
2023-05-02T18:50:17.093Z,8.02
2023-05-02T18:52:46.783Z,7.78
2023-05-02T18:55:16.396Z,9.43
2023-05-02T18:57:46.504Z,7.88
2023-05-02T19:00:16.818Z,7.57
2023-05-02T19:02:46.802Z,8.32
2023-05-02T19:05:16.583Z,9.70
2023-05-02T19:07:46.360Z,9.85
2023-05-02T19:10:16.026Z,8.25
2023-05-02T19:12:45.661Z,8.43
2023-05-02T19:15:15.285Z,7.57
2023-05-02T19:17:45.903Z,8.90
2023-05-02T19:20:15.517Z,11.27
2023-05-02T19:22:45.366Z,8.77
2023-05-02T19:25:16.211Z,10.50
2023-05-02T19:27:48.144Z,9.50
2023-05-02T19:30:18.029Z,9.88
2023-05-02T19:32:47.672Z,7.88
2023-05-02T19:35:17.384Z,7.43
2023-05-02T19:37:47.073Z,9.60
2023-05-02T19:40:17.911Z,8.15
2023-05-02T19:42:47.548Z,7.57
2023-05-02T19:45:17.216Z,11.38
2023-05-02T19:47:47.281Z,9.90
2023-05-02T19:50:17.070Z,8.43
2023-05-02T19:52:49.412Z,8.52
2023-05-02T19:55:20.074Z,7.97
2023-05-02T19:57:50.277Z,7.93
2023-05-02T20:00:20.268Z,10.20
2023-05-02T20:02:51.322Z,7.95
2023-05-02T20:05:21.417Z,8.88
2023-05-02T20:07:51.067Z,7.93
2023-05-02T20:10:20.778Z,9.30
2023-05-02T20:12:50.429Z,9.55
2023-05-02T20:15:20.122Z,8.35
2023-05-02T20:17:49.950Z,8.50
2023-05-02T20:20:19.591Z,8.23
2023-05-02T20:22:49.214Z,7.93
2023-05-02T20:25:18.918Z,7.68
2023-05-02T20:27:48.516Z,9.25
2023-05-02T20:30:18.247Z,7.93
2023-05-02T20:32:48.035Z,8.40
2023-05-02T20:35:17.751Z,8.40
2023-05-02T20:37:48.384Z,7.25
2023-05-02T20:40:18.090Z,8.30
2023-05-02T20:42:48.830Z,10.13
2023-05-02T20:45:20.375Z,8.00
2023-05-02T20:47:50.089Z,7.38
2023-05-02T20:50:20.036Z,7.90
2023-05-02T20:52:49.747Z,9.93
2023-05-02T20:55:20.250Z,7.20
2023-05-02T20:57:52.749Z,8.77
2023-05-02T21:00:25.591Z,7.38
2023-05-02T21:02:55.331Z,7.78
2023-05-02T21:05:25.014Z,9.25
2023-05-02T21:07:54.641Z,8.48
2023-05-02T21:10:24.450Z,7.70
2023-05-02T21:12:54.041Z,7.93
2023-05-02T21:15:23.669Z,7.85
2023-05-02T21:18:01.478Z,6.93
2023-05-02T21:20:31.709Z,8.48
2023-05-02T21:23:01.389Z,6.40
2023-05-02T21:25:31.021Z,7.80
2023-05-02T21:28:00.692Z,10.57
2023-05-02T21:30:33.159Z,9.38
2023-05-02T21:33:02.904Z,9.57
2023-05-02T21:35:36.381Z,9.75
2023-05-02T21:38:06.087Z,8.50
2023-05-02T21:40:38.847Z,7.75
2023-05-02T21:43:08.677Z,7.05
2023-05-02T21:45:49.761Z,6.88
2023-05-02T21:48:19.712Z,8.48
2023-05-02T21:50:55.736Z,6.72
2023-05-02T21:53:25.439Z,6.63
2023-05-02T21:55:55.092Z,8.70
2023-05-02T21:58:24.767Z,6.72
2023-05-02T22:00:54.421Z,8.88
2023-05-02T22:03:24.886Z,8.98
2023-05-02T22:05:56.114Z,6.93
2023-05-02T22:08:26.313Z,7.80
2023-05-02T22:10:56.102Z,7.60
2023-05-02T22:13:25.681Z,7.85
2023-05-02T22:15:55.277Z,9.45
2023-05-02T22:18:24.907Z,7.20
2023-05-02T22:20:55.604Z,7.13
2023-05-02T22:23:25.668Z,7.63
2023-05-02T22:25:55.333Z,8.15
2023-05-02T22:28:25.187Z,7.93
2023-05-02T22:30:57.797Z,7.75
2023-05-02T22:33:27.660Z,7.72
2023-05-02T22:35:58.468Z,6.82
2023-05-02T22:38:28.212Z,9.30
2023-05-02T22:40:57.842Z,8.43
2023-05-02T22:43:27.565Z,8.38
2023-05-02T22:45:57.475Z,8.23
2023-05-02T22:48:27.339Z,6.60
2023-05-02T22:50:57.540Z,6.68
2023-05-02T22:53:27.675Z,7.35
2023-05-02T22:55:57.740Z,8.38
2023-05-02T22:58:27.529Z,5.35
2023-05-02T23:00:57.148Z,6.93
2023-05-02T23:03:27.148Z,8.30
2023-05-02T23:05:58.788Z,7.03
2023-05-02T23:08:28.538Z,8.98
2023-05-02T23:11:00.932Z,8.38
2023-05-02T23:13:31.291Z,8.35
2023-05-02T23:16:00.998Z,5.97
2023-05-02T23:18:30.811Z,7.88
2023-05-02T23:21:00.458Z,6.82
2023-05-02T23:23:30.442Z,8.55
2023-05-02T23:26:00.575Z,8.02
2023-05-02T23:28:30.386Z,7.60
2023-05-02T23:31:08.554Z,8.52
2023-05-02T23:33:38.731Z,7.32
2023-05-02T23:36:09.337Z,6.03
2023-05-02T23:38:41.702Z,7.70
2023-05-02T23:41:11.339Z,6.20
2023-05-02T23:43:41.033Z,6.93
2023-05-02T23:46:10.728Z,7.25
2023-05-02T23:48:40.361Z,9.18
2023-05-02T23:51:13.914Z,6.57
2023-05-02T23:53:46.881Z,7.00
2023-05-02T23:56:19.949Z,7.95
2023-05-02T23:58:49.669Z,8.95
